sensor_id;sensor_type;location;lat;lon;timestamp;temperature;humidity
10390;DHT22;5241;47.830;12.972;2022-09-23T00:00:59;4.70;99.90
10390;DHT22;5241;47.830;12.972;2022-09-23T00:03:26;4.70;99.90
10390;DHT22;5241;47.830;12.972;2022-09-23T00:06:10;4.70;99.90
10390;DHT22;5241;47.830;12.972;2022-09-23T00:08:37;4.70;99.90
10390;DHT22;5241;47.830;12.972;2022-09-23T00:13:34;4.70;99.90
10390;DHT22;5241;47.830;12.972;2022-09-23T00:16:05;4.70;99.90
10390;DHT22;5241;47.830;12.972;2022-09-23T00:18:31;4.70;99.90
10390;DHT22;5241;47.830;12.972;2022-09-23T00:20:56;4.80;99.90
10390;DHT22;5241;47.830;12.972;2022-09-23T00:23:22;4.80;99.90
10390;DHT22;5241;47.830;12.972;2022-09-23T00:25:59;4.80;99.90
10390;DHT22;5241;47.830;12.972;2022-09-23T00:28:25;4.80;99.90
10390;DHT22;5241;47.830;12.972;2022-09-23T00:30:50;4.80;99.90
10390;DHT22;5241;47.830;12.972;2022-09-23T00:33:17;4.90;99.90
10390;DHT22;5241;47.830;12.972;2022-09-23T00:35:42;4.90;99.90
10390;DHT22;5241;47.830;12.972;2022-09-23T00:38:08;4.90;99.90
10390;DHT22;5241;47.830;12.972;2022-09-23T00:40:33;4.90;99.90
10390;DHT22;5241;47.830;12.972;2022-09-23T00:43:00;4.90;99.90
10390;DHT22;5241;47.830;12.972;2022-09-23T00:45:26;4.80;99.90
10390;DHT22;5241;47.830;12.972;2022-09-23T00:47:56;4.80;99.90
10390;DHT22;5241;47.830;12.972;2022-09-23T00:50:29;4.80;99.90
10390;DHT22;5241;47.830;12.972;2022-09-23T00:52:57;4.70;99.90
10390;DHT22;5241;47.830;12.972;2022-09-23T00:55:29;4.60;99.90
10390;DHT22;5241;47.830;12.972;2022-09-23T00:57:58;4.60;99.90
10390;DHT22;5241;47.830;12.972;2022-09-23T01:00:25;4.70;99.90
10390;DHT22;5241;47.830;12.972;2022-09-23T01:02:51;4.60;99.90
10390;DHT22;5241;47.830;12.972;2022-09-23T01:05:17;4.60;99.90
10390;DHT22;5241;47.830;12.972;2022-09-23T01:07:45;4.50;99.90
10390;DHT22;5241;47.830;12.972;2022-09-23T01:10:12;4.40;99.90
10390;DHT22;5241;47.830;12.972;2022-09-23T01:13:02;4.50;99.90
10390;DHT22;5241;47.830;12.972;2022-09-23T01:15:38;4.40;99.90
10390;DHT22;5241;47.830;12.972;2022-09-23T01:18:36;4.40;99.90
10390;DHT22;5241;47.830;12.972;2022-09-23T01:31:51;4.40;99.90
10390;DHT22;5241;47.830;12.972;2022-09-23T01:34:48;4.40;99.90
10390;DHT22;5241;47.830;12.972;2022-09-23T01:37:29;4.50;99.90
10390;DHT22;5241;47.830;12.972;2022-09-23T01:40:22;4.70;99.90
10390;DHT22;5241;47.830;12.972;2022-09-23T01:43:11;4.70;99.90
10390;DHT22;5241;47.830;12.972;2022-09-23T01:45:46;4.90;99.90
10390;DHT22;5241;47.830;12.972;2022-09-23T01:48:20;4.90;99.90
10390;DHT22;5241;47.830;12.972;2022-09-23T01:51:02;5.00;99.90
10390;DHT22;5241;47.830;12.972;2022-09-23T01:53:42;5.00;99.90
10390;DHT22;5241;47.830;12.972;2022-09-23T01:56:25;4.90;99.90
10390;DHT22;5241;47.830;12.972;2022-09-23T01:59:19;4.80;99.90
10390;DHT22;5241;47.830;12.972;2022-09-23T02:01:54;4.60;99.90
10390;DHT22;5241;47.830;12.972;2022-09-23T02:04:39;4.40;99.90
10390;DHT22;5241;47.830;12.972;2022-09-23T02:07:19;4.20;99.90
10390;DHT22;5241;47.830;12.972;2022-09-23T02:10:08;4.00;99.90
10390;DHT22;5241;47.830;12.972;2022-09-23T02:12:36;3.90;99.90
10390;DHT22;5241;47.830;12.972;2022-09-23T02:15:09;3.80;99.90
10390;DHT22;5241;47.830;12.972;2022-09-23T02:17:44;3.60;99.90
10390;DHT22;5241;47.830;12.972;2022-09-23T02:20:14;3.70;99.90
10390;DHT22;5241;47.830;12.972;2022-09-23T02:23:11;3.70;99.90
10390;DHT22;5241;47.830;12.972;2022-09-23T02:25:55;3.60;99.90
10390;DHT22;5241;47.830;12.972;2022-09-23T02:28:41;3.50;99.90
10390;DHT22;5241;47.830;12.972;2022-09-23T02:31:16;3.50;99.90
10390;DHT22;5241;47.830;12.972;2022-09-23T02:33:54;3.40;99.90
10390;DHT22;5241;47.830;12.972;2022-09-23T02:36:29;3.50;99.90
10390;DHT22;5241;47.830;12.972;2022-09-23T02:39:01;3.50;99.90
10390;DHT22;5241;47.830;12.972;2022-09-23T02:44:08;3.50;99.90
10390;DHT22;5241;47.830;12.972;2022-09-23T02:46:35;3.40;99.90
10390;DHT22;5241;47.830;12.972;2022-09-23T02:49:21;3.30;99.90
10390;DHT22;5241;47.830;12.972;2022-09-23T02:51:47;3.30;99.90
10390;DHT22;5241;47.830;12.972;2022-09-23T02:54:17;3.40;99.90
10390;DHT22;5241;47.830;12.972;2022-09-23T02:56:43;3.20;99.90
10390;DHT22;5241;47.830;12.972;2022-09-23T02:59:10;3.10;99.90
10390;DHT22;5241;47.830;12.972;2022-09-23T03:07:22;3.10;99.90
10390;DHT22;5241;47.830;12.972;2022-09-23T03:10:07;3.20;99.90
10390;DHT22;5241;47.830;12.972;2022-09-23T03:12:44;3.20;99.90
10390;DHT22;5241;47.830;12.972;2022-09-23T03:16:10;3.10;99.90
10390;DHT22;5241;47.830;12.972;2022-09-23T03:18:34;3.10;99.90
10390;DHT22;5241;47.830;12.972;2022-09-23T03:21:05;3.00;99.90
10390;DHT22;5241;47.830;12.972;2022-09-23T03:23:38;2.90;99.90
10390;DHT22;5241;47.830;12.972;2022-09-23T03:26:27;2.90;99.90
10390;DHT22;5241;47.830;12.972;2022-09-23T03:28:54;2.80;99.90
10390;DHT22;5241;47.830;12.972;2022-09-23T03:31:19;2.90;99.90
10390;DHT22;5241;47.830;12.972;2022-09-23T03:33:49;2.80;99.90
10390;DHT22;5241;47.830;12.972;2022-09-23T03:36:20;2.80;99.90
10390;DHT22;5241;47.830;12.972;2022-09-23T03:39:09;2.70;99.90
10390;DHT22;5241;47.830;12.972;2022-09-23T03:41:40;2.80;99.90
10390;DHT22;5241;47.830;12.972;2022-09-23T03:44:08;2.80;99.90
10390;DHT22;5241;47.830;12.972;2022-09-23T03:46:34;2.80;99.90
10390;DHT22;5241;47.830;12.972;2022-09-23T03:49:09;2.80;99.90
10390;DHT22;5241;47.830;12.972;2022-09-23T03:51:36;2.80;99.90
10390;DHT22;5241;47.830;12.972;2022-09-23T03:54:02;2.80;99.90
10390;DHT22;5241;47.830;12.972;2022-09-23T03:56:28;2.80;99.90
10390;DHT22;5241;47.830;12.972;2022-09-23T03:58:53;2.70;99.90
10390;DHT22;5241;47.830;12.972;2022-09-23T04:01:19;2.70;99.90
10390;DHT22;5241;47.830;12.972;2022-09-23T04:03:44;2.60;99.90
10390;DHT22;5241;47.830;12.972;2022-09-23T04:06:10;2.60;99.90
10390;DHT22;5241;47.830;12.972;2022-09-23T04:08:35;2.60;99.90
10390;DHT22;5241;47.830;12.972;2022-09-23T04:11:01;2.70;99.90
10390;DHT22;5241;47.830;12.972;2022-09-23T04:13:28;2.70;99.90
10390;DHT22;5241;47.830;12.972;2022-09-23T04:15:54;2.70;99.90
10390;DHT22;5241;47.830;12.972;2022-09-23T04:18:19;2.60;99.90
10390;DHT22;5241;47.830;12.972;2022-09-23T04:20:46;2.60;99.90
10390;DHT22;5241;47.830;12.972;2022-09-23T04:23:11;2.60;99.90
10390;DHT22;5241;47.830;12.972;2022-09-23T04:25:44;2.50;99.90
10390;DHT22;5241;47.830;12.972;2022-09-23T04:28:09;2.40;99.90
10390;DHT22;5241;47.830;12.972;2022-09-23T04:30:38;2.40;99.90
10390;DHT22;5241;47.830;12.972;2022-09-23T04:33:05;2.40;99.90
10390;DHT22;5241;47.830;12.972;2022-09-23T04:35:31;2.50;99.90
10390;DHT22;5241;47.830;12.972;2022-09-23T04:37:57;2.50;99.90
10390;DHT22;5241;47.830;12.972;2022-09-23T04:40:22;2.50;99.90
10390;DHT22;5241;47.830;12.972;2022-09-23T04:42:48;2.50;99.90
10390;DHT22;5241;47.830;12.972;2022-09-23T04:45:14;2.60;99.90
10390;DHT22;5241;47.830;12.972;2022-09-23T04:47:40;2.50;99.90
10390;DHT22;5241;47.830;12.972;2022-09-23T04:50:06;2.60;99.90
10390;DHT22;5241;47.830;12.972;2022-09-23T04:52:32;2.60;99.90
10390;DHT22;5241;47.830;12.972;2022-09-23T04:54:57;2.60;99.90
10390;DHT22;5241;47.830;12.972;2022-09-23T04:57:23;2.50;99.90
10390;DHT22;5241;47.830;12.972;2022-09-23T04:59:49;2.40;99.90
10390;DHT22;5241;47.830;12.972;2022-09-23T05:02:15;2.40;99.90
10390;DHT22;5241;47.830;12.972;2022-09-23T05:04:40;2.40;99.90
10390;DHT22;5241;47.830;12.972;2022-09-23T05:07:06;2.40;99.90
10390;DHT22;5241;47.830;12.972;2022-09-23T05:09:32;2.50;99.90
10390;DHT22;5241;47.830;12.972;2022-09-23T05:11:58;2.50;99.90
10390;DHT22;5241;47.830;12.972;2022-09-23T05:14:24;2.30;99.90
10390;DHT22;5241;47.830;12.972;2022-09-23T05:16:49;2.40;99.90
10390;DHT22;5241;47.830;12.972;2022-09-23T05:19:15;2.30;99.90
10390;DHT22;5241;47.830;12.972;2022-09-23T05:21:40;2.40;99.90
10390;DHT22;5241;47.830;12.972;2022-09-23T05:24:06;2.40;99.90
10390;DHT22;5241;47.830;12.972;2022-09-23T05:26:31;2.50;99.90
10390;DHT22;5241;47.830;12.972;2022-09-23T05:28:58;2.60;99.90
10390;DHT22;5241;47.830;12.972;2022-09-23T05:31:26;2.70;99.90
10390;DHT22;5241;47.830;12.972;2022-09-23T05:33:57;2.70;99.90
10390;DHT22;5241;47.830;12.972;2022-09-23T05:36:24;2.70;99.90
10390;DHT22;5241;47.830;12.972;2022-09-23T05:38:50;2.70;99.90
10390;DHT22;5241;47.830;12.972;2022-09-23T05:41:18;2.80;99.90
10390;DHT22;5241;47.830;12.972;2022-09-23T05:43:44;2.80;99.90
10390;DHT22;5241;47.830;12.972;2022-09-23T05:46:14;2.80;99.90
10390;DHT22;5241;47.830;12.972;2022-09-23T05:48:41;2.80;99.90
10390;DHT22;5241;47.830;12.972;2022-09-23T05:51:08;2.80;99.90
10390;DHT22;5241;47.830;12.972;2022-09-23T05:53:37;2.90;99.90
10390;DHT22;5241;47.830;12.972;2022-09-23T05:56:04;3.10;99.90
10390;DHT22;5241;47.830;12.972;2022-09-23T05:58:30;3.20;99.90
10390;DHT22;5241;47.830;12.972;2022-09-23T06:00:55;3.30;99.90
10390;DHT22;5241;47.830;12.972;2022-09-23T06:03:22;3.40;99.90
10390;DHT22;5241;47.830;12.972;2022-09-23T06:05:51;3.40;99.90
10390;DHT22;5241;47.830;12.972;2022-09-23T06:08:17;3.50;99.90
10390;DHT22;5241;47.830;12.972;2022-09-23T06:10:44;3.60;99.90
10390;DHT22;5241;47.830;12.972;2022-09-23T06:13:11;3.70;99.90
10390;DHT22;5241;47.830;12.972;2022-09-23T06:15:37;3.90;99.90
10390;DHT22;5241;47.830;12.972;2022-09-23T06:18:04;3.90;99.90
10390;DHT22;5241;47.830;12.972;2022-09-23T06:20:31;4.10;99.90
10390;DHT22;5241;47.830;12.972;2022-09-23T06:23:08;4.20;99.90
10390;DHT22;5241;47.830;12.972;2022-09-23T06:25:35;4.20;99.90
10390;DHT22;5241;47.830;12.972;2022-09-23T06:28:03;4.30;99.90
10390;DHT22;5241;47.830;12.972;2022-09-23T06:30:28;4.40;99.90
10390;DHT22;5241;47.830;12.972;2022-09-23T06:32:56;4.50;99.90
10390;DHT22;5241;47.830;12.972;2022-09-23T06:35:24;4.60;99.90
10390;DHT22;5241;47.830;12.972;2022-09-23T06:37:51;4.70;99.90
10390;DHT22;5241;47.830;12.972;2022-09-23T06:40:17;4.80;99.90
10390;DHT22;5241;47.830;12.972;2022-09-23T06:42:43;4.90;99.90
10390;DHT22;5241;47.830;12.972;2022-09-23T06:45:10;5.10;99.90
10390;DHT22;5241;47.830;12.972;2022-09-23T06:47:41;5.20;99.90
10390;DHT22;5241;47.830;12.972;2022-09-23T06:50:08;5.30;99.90
10390;DHT22;5241;47.830;12.972;2022-09-23T06:52:33;5.40;99.90
10390;DHT22;5241;47.830;12.972;2022-09-23T06:54:59;5.60;99.90
10390;DHT22;5241;47.830;12.972;2022-09-23T06:57:28;5.70;99.90
10390;DHT22;5241;47.830;12.972;2022-09-23T06:59:54;5.80;99.90
10390;DHT22;5241;47.830;12.972;2022-09-23T07:02:19;5.90;99.90
10390;DHT22;5241;47.830;12.972;2022-09-23T07:04:45;6.10;99.90
10390;DHT22;5241;47.830;12.972;2022-09-23T07:07:10;6.20;99.90
10390;DHT22;5241;47.830;12.972;2022-09-23T07:09:38;6.30;99.90
10390;DHT22;5241;47.830;12.972;2022-09-23T07:12:03;6.50;99.90
10390;DHT22;5241;47.830;12.972;2022-09-23T07:14:29;6.60;99.90
10390;DHT22;5241;47.830;12.972;2022-09-23T07:16:55;6.70;99.90
10390;DHT22;5241;47.830;12.972;2022-09-23T07:19:20;6.80;99.90
10390;DHT22;5241;47.830;12.972;2022-09-23T07:21:46;6.90;99.90
10390;DHT22;5241;47.830;12.972;2022-09-23T07:24:11;7.10;99.90
10390;DHT22;5241;47.830;12.972;2022-09-23T07:26:37;7.20;99.90
10390;DHT22;5241;47.830;12.972;2022-09-23T07:29:03;7.50;99.90
10390;DHT22;5241;47.830;12.972;2022-09-23T07:31:33;7.70;99.90
10390;DHT22;5241;47.830;12.972;2022-09-23T07:33:59;8.10;99.90
10390;DHT22;5241;47.830;12.972;2022-09-23T07:36:28;8.60;99.90
10390;DHT22;5241;47.830;12.972;2022-09-23T07:38:55;9.60;99.90
10390;DHT22;5241;47.830;12.972;2022-09-23T07:41:25;10.40;99.90
10390;DHT22;5241;47.830;12.972;2022-09-23T07:43:53;11.10;99.90
10390;DHT22;5241;47.830;12.972;2022-09-23T07:46:24;11.70;99.90
10390;DHT22;5241;47.830;12.972;2022-09-23T07:48:50;12.50;99.90
10390;DHT22;5241;47.830;12.972;2022-09-23T07:51:19;13.20;99.90
10390;DHT22;5241;47.830;12.972;2022-09-23T07:53:48;13.40;99.90
10390;DHT22;5241;47.830;12.972;2022-09-23T07:56:14;13.90;99.90
10390;DHT22;5241;47.830;12.972;2022-09-23T07:58:40;14.00;99.90
10390;DHT22;5241;47.830;12.972;2022-09-23T08:01:07;14.00;99.90
10390;DHT22;5241;47.830;12.972;2022-09-23T08:03:34;14.50;99.90
10390;DHT22;5241;47.830;12.972;2022-09-23T08:06:08;14.60;99.90
10390;DHT22;5241;47.830;12.972;2022-09-23T08:08:35;15.10;99.90
10390;DHT22;5241;47.830;12.972;2022-09-23T08:11:04;15.20;99.90
10390;DHT22;5241;47.830;12.972;2022-09-23T08:13:32;15.00;99.90
10390;DHT22;5241;47.830;12.972;2022-09-23T08:15:58;15.00;99.90
10390;DHT22;5241;47.830;12.972;2022-09-23T08:18:24;15.10;99.90
10390;DHT22;5241;47.830;12.972;2022-09-23T08:20:50;15.70;99.90
10390;DHT22;5241;47.830;12.972;2022-09-23T08:23:16;15.90;99.90
10390;DHT22;5241;47.830;12.972;2022-09-23T08:25:43;16.10;99.90
10390;DHT22;5241;47.830;12.972;2022-09-23T08:28:15;15.90;99.90
10390;DHT22;5241;47.830;12.972;2022-09-23T08:30:43;16.10;99.90
10390;DHT22;5241;47.830;12.972;2022-09-23T08:33:10;15.90;99.90
10390;DHT22;5241;47.830;12.972;2022-09-23T08:35:36;15.90;99.90
10390;DHT22;5241;47.830;12.972;2022-09-23T08:38:02;16.20;99.10
10390;DHT22;5241;47.830;12.972;2022-09-23T08:40:28;16.30;99.30
10390;DHT22;5241;47.830;12.972;2022-09-23T08:42:53;16.60;98.00
10390;DHT22;5241;47.830;12.972;2022-09-23T08:45:25;16.80;96.30
10390;DHT22;5241;47.830;12.972;2022-09-23T08:48:01;16.80;95.60
10390;DHT22;5241;47.830;12.972;2022-09-23T08:50:56;16.80;94.90
10390;DHT22;5241;47.830;12.972;2022-09-23T08:53:35;16.10;95.90
10390;DHT22;5241;47.830;12.972;2022-09-23T08:56:13;16.60;94.80
10390;DHT22;5241;47.830;12.972;2022-09-23T09:04:00;17.30;93.10
10390;DHT22;5241;47.830;12.972;2022-09-23T09:06:27;17.10;92.20
10390;DHT22;5241;47.830;12.972;2022-09-23T09:08:58;16.90;90.70
10390;DHT22;5241;47.830;12.972;2022-09-23T09:11:35;17.00;91.50
10390;DHT22;5241;47.830;12.972;2022-09-23T09:17:06;17.50;92.60
10390;DHT22;5241;47.830;12.972;2022-09-23T09:19:44;17.50;91.20
10390;DHT22;5241;47.830;12.972;2022-09-23T09:27:41;17.30;91.90
10390;DHT22;5241;47.830;12.972;2022-09-23T09:30:20;17.80;90.30
10390;DHT22;5241;47.830;12.972;2022-09-23T09:35:35;17.20;91.70
10390;DHT22;5241;47.830;12.972;2022-09-23T09:38:02;17.10;92.10
10390;DHT22;5241;47.830;12.972;2022-09-23T09:40:29;17.20;91.90
10390;DHT22;5241;47.830;12.972;2022-09-23T09:42:54;17.30;91.80
10390;DHT22;5241;47.830;12.972;2022-09-23T09:48:38;18.50;87.20
10390;DHT22;5241;47.830;12.972;2022-09-23T09:51:21;18.70;86.80
10390;DHT22;5241;47.830;12.972;2022-09-23T09:53:47;19.00;85.40
10390;DHT22;5241;47.830;12.972;2022-09-23T09:56:23;19.10;84.70
10390;DHT22;5241;47.830;12.972;2022-09-23T09:58:55;18.90;79.50
10390;DHT22;5241;47.830;12.972;2022-09-23T10:01:30;18.30;84.00
10390;DHT22;5241;47.830;12.972;2022-09-23T10:03:59;17.80;86.90
10390;DHT22;5241;47.830;12.972;2022-09-23T10:06:26;17.80;87.60
10390;DHT22;5241;47.830;12.972;2022-09-23T10:11:32;18.70;87.50
10390;DHT22;5241;47.830;12.972;2022-09-23T10:14:14;19.10;88.30
10390;DHT22;5241;47.830;12.972;2022-09-23T10:16:42;18.70;87.40
10390;DHT22;5241;47.830;12.972;2022-09-23T10:19:27;18.30;89.30
10390;DHT22;5241;47.830;12.972;2022-09-23T10:21:55;18.50;89.20
10390;DHT22;5241;47.830;12.972;2022-09-23T10:24:26;18.70;87.40
10390;DHT22;5241;47.830;12.972;2022-09-23T10:27:00;19.10;82.30
10390;DHT22;5241;47.830;12.972;2022-09-23T10:29:28;19.80;80.50
10390;DHT22;5241;47.830;12.972;2022-09-23T10:32:24;19.50;79.20
10390;DHT22;5241;47.830;12.972;2022-09-23T10:35:10;19.20;82.10
10390;DHT22;5241;47.830;12.972;2022-09-23T10:37:39;19.10;84.70
10390;DHT22;5241;47.830;12.972;2022-09-23T10:43:27;19.10;83.00
10390;DHT22;5241;47.830;12.972;2022-09-23T10:46:22;19.70;82.20
10390;DHT22;5241;47.830;12.972;2022-09-23T10:56:53;19.90;82.40
10390;DHT22;5241;47.830;12.972;2022-09-23T10:59:45;21.10;80.10
10390;DHT22;5241;47.830;12.972;2022-09-23T11:02:31;21.20;76.60
10390;DHT22;5241;47.830;12.972;2022-09-23T11:08:07;20.40;78.60
10390;DHT22;5241;47.830;12.972;2022-09-23T11:13:37;21.70;74.50
10390;DHT22;5241;47.830;12.972;2022-09-23T11:36:34;22.00;68.20
10390;DHT22;5241;47.830;12.972;2022-09-23T11:39:08;21.40;69.10
10390;DHT22;5241;47.830;12.972;2022-09-23T11:41:38;21.90;69.10
10390;DHT22;5241;47.830;12.972;2022-09-23T11:46:44;22.60;67.30
10390;DHT22;5241;47.830;12.972;2022-09-23T11:49:14;22.90;65.80
10390;DHT22;5241;47.830;12.972;2022-09-23T11:57:54;21.90;69.20
10390;DHT22;5241;47.830;12.972;2022-09-23T12:00:26;22.20;69.40
10390;DHT22;5241;47.830;12.972;2022-09-23T12:03:20;22.40;68.40
10390;DHT22;5241;47.830;12.972;2022-09-23T12:06:05;22.40;67.60
10390;DHT22;5241;47.830;12.972;2022-09-23T12:08:34;22.10;69.60
10390;DHT22;5241;47.830;12.972;2022-09-23T12:11:17;21.80;69.90
10390;DHT22;5241;47.830;12.972;2022-09-23T12:13:53;22.90;69.80
10390;DHT22;5241;47.830;12.972;2022-09-23T12:22:17;24.20;63.10
10390;DHT22;5241;47.830;12.972;2022-09-23T12:27:33;22.90;67.40
10390;DHT22;5241;47.830;12.972;2022-09-23T12:30:10;23.90;66.70
10390;DHT22;5241;47.830;12.972;2022-09-23T12:32:37;24.40;65.30
10390;DHT22;5241;47.830;12.972;2022-09-23T12:35:02;24.50;63.50
10390;DHT22;5241;47.830;12.972;2022-09-23T12:37:32;24.80;62.60
10390;DHT22;5241;47.830;12.972;2022-09-23T12:40:04;24.10;65.10
10390;DHT22;5241;47.830;12.972;2022-09-23T12:42:30;23.50;66.50
10390;DHT22;5241;47.830;12.972;2022-09-23T12:51:04;23.00;68.50
10390;DHT22;5241;47.830;12.972;2022-09-23T12:53:55;23.10;66.80
10390;DHT22;5241;47.830;12.972;2022-09-23T12:56:24;22.90;65.30
10390;DHT22;5241;47.830;12.972;2022-09-23T12:58:57;23.00;66.90
10390;DHT22;5241;47.830;12.972;2022-09-23T13:01:24;22.70;68.80
10390;DHT22;5241;47.830;12.972;2022-09-23T13:03:57;22.50;70.00
10390;DHT22;5241;47.830;12.972;2022-09-23T13:07:07;22.80;68.60
10390;DHT22;5241;47.830;12.972;2022-09-23T13:09:40;23.20;66.10
10390;DHT22;5241;47.830;12.972;2022-09-23T13:12:15;23.80;63.10
10390;DHT22;5241;47.830;12.972;2022-09-23T13:14:44;24.60;63.80
10390;DHT22;5241;47.830;12.972;2022-09-23T13:17:28;23.60;67.60
10390;DHT22;5241;47.830;12.972;2022-09-23T13:20:45;23.10;67.30
10390;DHT22;5241;47.830;12.972;2022-09-23T13:25:28;23.30;66.70
10390;DHT22;5241;47.830;12.972;2022-09-23T13:28:00;23.10;66.40
10390;DHT22;5241;47.830;12.972;2022-09-23T13:30:25;22.90;67.40
10390;DHT22;5241;47.830;12.972;2022-09-23T13:35:33;22.60;69.20
10390;DHT22;5241;47.830;12.972;2022-09-23T13:38:08;22.80;68.60
10390;DHT22;5241;47.830;12.972;2022-09-23T13:40:35;22.90;68.50
10390;DHT22;5241;47.830;12.972;2022-09-23T13:43:04;22.70;68.40
10390;DHT22;5241;47.830;12.972;2022-09-23T13:45:31;22.70;69.00
10390;DHT22;5241;47.830;12.972;2022-09-23T13:48:03;23.00;68.00
10390;DHT22;5241;47.830;12.972;2022-09-23T13:50:30;22.40;69.30
10390;DHT22;5241;47.830;12.972;2022-09-23T13:52:59;21.80;71.60
10390;DHT22;5241;47.830;12.972;2022-09-23T13:55:27;21.40;72.90
10390;DHT22;5241;47.830;12.972;2022-09-23T13:58:20;22.00;70.00
10390;DHT22;5241;47.830;12.972;2022-09-23T14:00:46;21.90;71.20
10390;DHT22;5241;47.830;12.972;2022-09-23T14:03:23;21.60;72.10
10390;DHT22;5241;47.830;12.972;2022-09-23T14:05:50;21.40;73.80
10390;DHT22;5241;47.830;12.972;2022-09-23T14:08:16;21.60;74.60
10390;DHT22;5241;47.830;12.972;2022-09-23T14:10:44;21.70;74.20
10390;DHT22;5241;47.830;12.972;2022-09-23T14:13:44;21.90;71.90
10390;DHT22;5241;47.830;12.972;2022-09-23T14:16:12;21.80;70.90
10390;DHT22;5241;47.830;12.972;2022-09-23T14:18:49;21.20;74.20
10390;DHT22;5241;47.830;12.972;2022-09-23T14:21:30;21.00;72.60
10390;DHT22;5241;47.830;12.972;2022-09-23T14:24:22;20.70;72.00
10390;DHT22;5241;47.830;12.972;2022-09-23T14:26:53;20.20;77.40
10390;DHT22;5241;47.830;12.972;2022-09-23T14:29:30;19.40;82.00
10390;DHT22;5241;47.830;12.972;2022-09-23T14:32:22;18.90;82.60
10390;DHT22;5241;47.830;12.972;2022-09-23T14:35:03;18.60;83.50
10390;DHT22;5241;47.830;12.972;2022-09-23T14:37:41;18.40;84.80
10390;DHT22;5241;47.830;12.972;2022-09-23T14:40:56;18.50;84.10
10390;DHT22;5241;47.830;12.972;2022-09-23T14:43:58;18.40;84.90
10390;DHT22;5241;47.830;12.972;2022-09-23T14:46:27;18.70;83.60
10390;DHT22;5241;47.830;12.972;2022-09-23T14:49:14;18.40;85.40
10390;DHT22;5241;47.830;12.972;2022-09-23T14:51:55;18.40;85.30
10390;DHT22;5241;47.830;12.972;2022-09-23T14:54:44;18.20;87.50
10390;DHT22;5241;47.830;12.972;2022-09-23T14:59:58;18.30;86.60
10390;DHT22;5241;47.830;12.972;2022-09-23T15:02:30;17.90;87.70
10390;DHT22;5241;47.830;12.972;2022-09-23T15:07:36;17.80;87.50
10390;DHT22;5241;47.830;12.972;2022-09-23T15:10:05;17.80;87.50
10390;DHT22;5241;47.830;12.972;2022-09-23T15:12:31;17.70;87.90
10390;DHT22;5241;47.830;12.972;2022-09-23T15:14:56;17.60;87.50
10390;DHT22;5241;47.830;12.972;2022-09-23T15:19:54;17.40;87.50
10390;DHT22;5241;47.830;12.972;2022-09-23T15:22:22;17.30;89.70
10390;DHT22;5241;47.830;12.972;2022-09-23T15:24:50;17.40;90.40
10390;DHT22;5241;47.830;12.972;2022-09-23T15:27:33;17.30;91.10
10390;DHT22;5241;47.830;12.972;2022-09-23T15:30:15;17.30;91.00
10390;DHT22;5241;47.830;12.972;2022-09-23T15:32:44;17.20;90.00
10390;DHT22;5241;47.830;12.972;2022-09-23T15:35:18;17.10;91.50
10390;DHT22;5241;47.830;12.972;2022-09-23T15:37:45;16.90;91.20
10390;DHT22;5241;47.830;12.972;2022-09-23T15:40:40;16.90;91.50
10390;DHT22;5241;47.830;12.972;2022-09-23T15:43:18;17.10;90.60
10390;DHT22;5241;47.830;12.972;2022-09-23T15:45:49;17.20;91.20
10390;DHT22;5241;47.830;12.972;2022-09-23T15:48:22;17.10;91.20
10390;DHT22;5241;47.830;12.972;2022-09-23T15:50:49;17.00;91.60
10390;DHT22;5241;47.830;12.972;2022-09-23T15:53:20;17.00;91.80
10390;DHT22;5241;47.830;12.972;2022-09-23T15:55:46;16.90;92.10
10390;DHT22;5241;47.830;12.972;2022-09-23T15:58:12;16.80;91.80
10390;DHT22;5241;47.830;12.972;2022-09-23T16:00:37;16.70;92.20
10390;DHT22;5241;47.830;12.972;2022-09-23T16:03:03;16.70;92.60
10390;DHT22;5241;47.830;12.972;2022-09-23T16:05:33;16.60;91.80
10390;DHT22;5241;47.830;12.972;2022-09-23T16:08:02;16.40;92.20
10390;DHT22;5241;47.830;12.972;2022-09-23T16:10:28;16.20;92.10
10390;DHT22;5241;47.830;12.972;2022-09-23T16:12:55;16.10;92.70
10390;DHT22;5241;47.830;12.972;2022-09-23T16:15:23;16.10;93.30
10390;DHT22;5241;47.830;12.972;2022-09-23T16:17:49;16.00;93.20
10390;DHT22;5241;47.830;12.972;2022-09-23T16:20:15;15.90;94.20
10390;DHT22;5241;47.830;12.972;2022-09-23T16:22:52;15.80;94.00
10390;DHT22;5241;47.830;12.972;2022-09-23T16:25:19;15.70;95.00
10390;DHT22;5241;47.830;12.972;2022-09-23T16:27:45;15.60;95.80
10390;DHT22;5241;47.830;12.972;2022-09-23T16:30:11;15.50;96.30
10390;DHT22;5241;47.830;12.972;2022-09-23T16:32:37;15.40;96.80
10390;DHT22;5241;47.830;12.972;2022-09-23T16:35:03;15.20;98.50
10390;DHT22;5241;47.830;12.972;2022-09-23T16:37:30;15.10;99.60
10390;DHT22;5241;47.830;12.972;2022-09-23T16:39:56;14.90;99.90
10390;DHT22;5241;47.830;12.972;2022-09-23T16:42:21;14.70;99.90
10390;DHT22;5241;47.830;12.972;2022-09-23T16:44:47;14.60;99.90
10390;DHT22;5241;47.830;12.972;2022-09-23T16:47:12;14.50;99.90
10390;DHT22;5241;47.830;12.972;2022-09-23T16:49:38;14.30;99.90
10390;DHT22;5241;47.830;12.972;2022-09-23T16:52:04;14.20;99.90
10390;DHT22;5241;47.830;12.972;2022-09-23T16:54:29;14.00;99.90
10390;DHT22;5241;47.830;12.972;2022-09-23T16:56:56;13.70;99.90
10390;DHT22;5241;47.830;12.972;2022-09-23T16:59:23;13.50;99.90
10390;DHT22;5241;47.830;12.972;2022-09-23T17:02:10;13.30;99.90
10390;DHT22;5241;47.830;12.972;2022-09-23T17:04:54;13.10;99.90
10390;DHT22;5241;47.830;12.972;2022-09-23T17:07:21;12.90;99.90
10390;DHT22;5241;47.830;12.972;2022-09-23T17:09:47;12.80;99.90
10390;DHT22;5241;47.830;12.972;2022-09-23T17:12:16;12.60;99.90
10390;DHT22;5241;47.830;12.972;2022-09-23T17:14:44;12.70;99.90
10390;DHT22;5241;47.830;12.972;2022-09-23T17:17:10;12.70;99.90
10390;DHT22;5241;47.830;12.972;2022-09-23T17:19:36;12.60;99.90
10390;DHT22;5241;47.830;12.972;2022-09-23T17:22:02;12.50;99.90
10390;DHT22;5241;47.830;12.972;2022-09-23T17:24:27;12.30;99.90
10390;DHT22;5241;47.830;12.972;2022-09-23T17:26:53;12.20;99.90
10390;DHT22;5241;47.830;12.972;2022-09-23T17:29:19;12.00;99.90
10390;DHT22;5241;47.830;12.972;2022-09-23T17:31:44;11.90;99.90
10390;DHT22;5241;47.830;12.972;2022-09-23T17:34:10;11.80;99.90
10390;DHT22;5241;47.830;12.972;2022-09-23T17:36:36;11.80;99.90
10390;DHT22;5241;47.830;12.972;2022-09-23T17:39:03;12.00;99.90
10390;DHT22;5241;47.830;12.972;2022-09-23T17:41:30;11.80;99.90
10390;DHT22;5241;47.830;12.972;2022-09-23T17:43:56;11.70;99.90
10390;DHT22;5241;47.830;12.972;2022-09-23T17:46:23;11.50;99.90
10390;DHT22;5241;47.830;12.972;2022-09-23T17:48:49;11.40;99.90
10390;DHT22;5241;47.830;12.972;2022-09-23T17:51:18;11.30;99.90
10390;DHT22;5241;47.830;12.972;2022-09-23T17:53:45;11.30;99.90
10390;DHT22;5241;47.830;12.972;2022-09-23T17:56:15;11.30;99.90
10390;DHT22;5241;47.830;12.972;2022-09-23T17:58:41;11.30;99.90
10390;DHT22;5241;47.830;12.972;2022-09-23T18:01:09;11.30;99.90